createdAt,value
2022-09-03T00:01:08.758Z,100975.18
2022-09-03T00:03:48.227Z,100977.63
2022-09-03T00:06:22.366Z,100980.40
2022-09-03T00:09:08.113Z,100978.48
2022-09-03T00:12:04.346Z,100988.38
2022-09-03T00:14:49.924Z,100983.06
2022-09-03T00:17:23.476Z,100980.93
2022-09-03T00:20:10.077Z,100985.61
2022-09-03T00:22:47.567Z,100987.31
2022-09-03T00:25:22.311Z,100986.55
2022-09-03T00:27:57.341Z,100984.02
2022-09-03T00:30:27.833Z,100986.68
2022-09-03T00:33:08.770Z,100989.13
2022-09-03T00:36:04.794Z,100987.44
2022-09-03T00:38:33.646Z,100983.72
2022-09-03T00:41:10.989Z,100990.32
2022-09-03T00:44:02.320Z,100991.92
2022-09-03T00:46:46.093Z,100983.31
2022-09-03T00:49:41.722Z,100979.17
2022-09-03T00:52:24.932Z,100983.31
2022-09-03T00:55:21.101Z,100983.63
2022-09-03T00:58:13.116Z,100984.16
2022-09-03T01:00:45.283Z,100983.84
2022-09-03T01:03:34.561Z,100989.06
2022-09-03T01:06:25.489Z,100987.05
2022-09-03T01:09:37.531Z,100980.14
2022-09-03T01:12:32.086Z,100988.12
2022-09-03T01:15:18.619Z,100988.65
2022-09-03T01:18:09.572Z,100987.05
2022-09-03T01:21:11.770Z,100981.11
2022-09-03T01:24:14.027Z,100980.27
2022-09-03T01:27:16.036Z,100987.48
2022-09-03T01:30:11.207Z,100987.70
2022-09-03T01:33:14.124Z,100995.05
2022-09-03T01:35:47.523Z,100992.50
2022-09-03T01:38:51.284Z,100985.28
2022-09-03T01:42:02.681Z,100986.76
2022-09-03T01:44:48.272Z,100988.45
2022-09-03T01:47:50.426Z,100987.61
2022-09-03T01:51:00.013Z,100993.13
2022-09-03T01:53:52.012Z,100995.05
2022-09-03T01:56:44.954Z,100996.55
2022-09-03T01:59:33.342Z,100988.06
2022-09-03T02:02:23.590Z,100988.59
2022-09-03T02:05:25.020Z,100989.34
2022-09-03T02:08:04.992Z,100987.65
2022-09-03T02:10:51.286Z,100984.04
2022-09-03T02:13:25.606Z,100985.33
2022-09-03T02:16:00.390Z,100994.36
2022-09-03T02:18:33.823Z,100990.20
2022-09-03T02:21:03.672Z,100990.91
2022-09-03T02:23:33.808Z,100989.03
2022-09-03T02:26:03.438Z,100995.06
2022-09-03T02:28:33.155Z,100992.20
2022-09-03T02:31:03.538Z,100994.86
2022-09-03T02:33:37.763Z,100989.34
2022-09-03T02:36:09.410Z,100987.42
2022-09-03T02:38:39.114Z,100985.41
2022-09-03T02:41:08.087Z,100987.54
2022-09-03T02:43:44.483Z,100990.62
2022-09-03T02:46:18.773Z,100990.94
2022-09-03T02:48:48.542Z,100985.72
2022-09-03T02:51:17.429Z,100992.09
2022-09-03T02:53:46.616Z,100994.02
2022-09-03T02:56:15.727Z,100994.02
2022-09-03T02:58:44.939Z,100998.79
2022-09-03T03:01:14.549Z,100990.19
2022-09-03T03:03:45.887Z,100995.08
2022-09-03T03:06:15.479Z,100986.91
2022-09-03T03:08:45.203Z,100991.80
2022-09-03T03:11:16.810Z,100992.42
2022-09-03T03:13:46.945Z,100993.06
2022-09-03T03:16:17.189Z,100995.08
2022-09-03T03:18:47.652Z,100994.44
2022-09-03T03:21:17.893Z,100993.81
2022-09-03T03:23:49.656Z,101002.31
2022-09-03T03:26:20.378Z,101003.69
2022-09-03T03:28:50.968Z,101007.30
2022-09-03T03:31:21.974Z,101012.92
2022-09-03T03:33:56.763Z,101022.28
2022-09-03T03:36:28.397Z,101011.13
2022-09-03T03:38:58.573Z,101016.33
2022-09-03T03:41:33.660Z,101020.58
2022-09-03T03:44:05.801Z,101015.48
2022-09-03T03:46:39.921Z,101016.02
2022-09-03T03:49:10.028Z,101021.54
2022-09-03T03:51:41.158Z,101018.78
2022-09-03T03:54:10.144Z,101019.20
2022-09-03T03:56:42.631Z,101021.97
2022-09-03T03:59:11.866Z,101016.45
2022-09-03T04:01:44.967Z,101016.66
2022-09-03T04:04:14.312Z,101018.25
2022-09-03T04:06:44.960Z,101020.38
2022-09-03T04:09:14.066Z,101021.77
2022-09-03T04:11:44.491Z,101025.48
2022-09-03T04:14:14.197Z,101042.47
2022-09-03T04:16:43.275Z,101045.65
2022-09-03T04:19:12.978Z,101047.98
2022-09-03T04:21:42.305Z,101046.70
2022-09-03T04:24:12.076Z,101053.83
2022-09-03T04:26:41.559Z,101055.73
2022-09-03T04:29:11.067Z,101056.05
2022-09-03T04:31:42.112Z,101046.60
2022-09-03T04:34:13.218Z,101044.80
2022-09-03T04:36:42.926Z,101047.45
2022-09-03T04:39:12.287Z,101046.39
2022-09-03T04:41:41.177Z,101039.06
2022-09-03T04:44:09.916Z,101044.59
2022-09-03T04:46:40.550Z,101049.89
2022-09-03T04:49:10.505Z,101044.69
2022-09-03T04:51:39.456Z,101035.98
2022-09-03T04:54:10.171Z,101039.38
2022-09-03T04:56:40.438Z,101038.09
2022-09-03T04:59:10.335Z,101039.27
2022-09-03T05:01:39.662Z,101040.23
2022-09-03T05:04:08.808Z,101041.19
2022-09-03T05:06:38.897Z,101044.59
2022-09-03T05:09:08.737Z,101045.22
2022-09-03T05:11:37.799Z,101046.07
2022-09-03T05:14:10.971Z,101047.55
2022-09-03T05:16:40.506Z,101036.61
2022-09-03T05:19:10.723Z,101040.44
2022-09-03T05:21:40.863Z,101032.36
2022-09-03T05:24:11.495Z,101036.92
2022-09-03T05:26:41.721Z,101032.70
2022-09-03T05:29:11.196Z,101034.40
2022-09-03T05:31:41.993Z,101037.61
2022-09-03T05:34:16.723Z,101034.42
2022-09-03T05:36:44.055Z,101034.73
2022-09-03T05:39:14.337Z,101037.81
2022-09-03T05:41:43.450Z,101036.97
2022-09-03T05:44:14.581Z,101028.78
2022-09-03T05:46:44.348Z,101040.03
2022-09-03T05:49:13.410Z,101033.76
2022-09-03T05:51:43.512Z,101040.55
2022-09-03T05:54:12.569Z,101040.75
2022-09-03T05:56:42.784Z,101042.76
2022-09-03T05:59:13.628Z,101049.98
2022-09-03T06:01:50.680Z,101053.27
2022-09-03T06:04:16.787Z,101049.63
2022-09-03T06:06:47.681Z,101038.26
2022-09-03T06:09:20.435Z,101041.87
2022-09-03T06:11:52.667Z,101036.75
2022-09-03T06:14:23.571Z,101033.23
2022-09-03T06:16:56.452Z,101030.13
2022-09-03T06:19:27.187Z,101019.58
2022-09-03T06:21:56.946Z,101022.97
2022-09-03T06:24:28.436Z,101032.09
2022-09-03T06:27:00.065Z,101032.50
2022-09-03T06:29:30.330Z,101026.61
2022-09-03T06:32:02.073Z,101034.91
2022-09-03T06:34:33.835Z,101028.41
2022-09-03T06:37:03.897Z,101030.06
2022-09-03T06:39:33.375Z,101036.19
2022-09-03T06:42:02.731Z,101035.65
2022-09-03T06:44:34.373Z,101038.19
2022-09-03T06:47:03.709Z,101027.43
2022-09-03T06:49:34.151Z,101029.75
2022-09-03T06:52:03.486Z,101027.56
2022-09-03T06:54:32.627Z,101032.72
2022-09-03T06:57:01.878Z,101038.83
2022-09-03T06:59:31.976Z,101042.25
2022-09-03T07:02:03.654Z,101026.74
2022-09-03T07:04:34.763Z,101034.14
2022-09-03T07:07:07.949Z,101032.08
2022-09-03T07:09:38.905Z,101027.41
2022-09-03T07:12:10.187Z,101031.01
2022-09-03T07:14:40.624Z,101028.62
2022-09-03T07:17:12.665Z,101029.67
2022-09-03T07:19:42.951Z,101031.29
2022-09-03T07:22:11.955Z,101029.98
2022-09-03T07:24:43.274Z,101041.77
2022-09-03T07:27:15.193Z,101035.06
2022-09-03T07:29:45.408Z,101043.69
2022-09-03T07:32:15.335Z,101040.56
2022-09-03T07:34:45.539Z,101039.94
2022-09-03T07:37:15.581Z,101035.33
2022-09-03T07:39:44.751Z,101045.38
2022-09-03T07:42:15.227Z,101043.70
2022-09-03T07:44:44.413Z,101044.78
2022-09-03T07:47:14.931Z,101041.70
2022-09-03T07:49:49.070Z,101042.78
2022-09-03T07:52:18.673Z,101032.39
2022-09-03T07:54:47.552Z,101037.14
2022-09-03T07:57:16.566Z,101030.40
2022-09-03T07:59:45.887Z,101029.70
2022-09-03T08:02:15.387Z,101033.83
2022-09-03T08:04:45.871Z,101032.77
2022-09-03T08:07:16.017Z,101029.95
2022-09-03T08:09:46.765Z,101025.98
2022-09-03T08:12:16.985Z,101030.88
2022-09-03T08:14:48.917Z,101033.42
2022-09-03T08:17:19.977Z,101036.38
2022-09-03T08:19:49.432Z,101036.01
2022-09-03T08:22:20.982Z,101026.65
2022-09-03T08:24:50.317Z,101028.23
2022-09-03T08:27:21.473Z,101029.50
2022-09-03T08:29:50.911Z,101027.45
2022-09-03T08:32:20.069Z,101027.45
2022-09-03T08:34:51.994Z,101031.02
2022-09-03T08:37:22.669Z,101034.58
2022-09-03T08:39:52.325Z,101027.20
2022-09-03T08:42:44.088Z,101028.41
2022-09-03T08:45:17.482Z,101023.22
2022-09-03T08:47:55.104Z,101018.75
2022-09-03T08:50:34.103Z,101016.57
2022-09-03T08:53:41.890Z,101010.52
2022-09-03T08:56:21.210Z,101008.64
2022-09-03T08:58:50.439Z,100997.59
2022-09-03T09:01:59.783Z,100998.50
2022-09-03T09:04:49.320Z,101000.74
2022-09-03T09:07:38.794Z,101001.95
2022-09-03T09:10:33.123Z,100997.78
2022-09-03T09:13:15.071Z,100990.16
2022-09-03T09:16:13.037Z,100990.88
2022-09-03T09:19:15.646Z,100994.31
2022-09-03T09:21:59.098Z,100996.55
2022-09-03T09:24:39.427Z,100989.48
2022-09-03T09:27:12.900Z,100990.46
2022-09-03T09:29:40.940Z,100986.59
2022-09-03T09:32:11.739Z,100998.13
2022-09-03T09:34:47.507Z,100999.33
2022-09-03T09:37:17.058Z,101005.69
2022-09-03T09:39:58.790Z,100998.38
2022-09-03T09:42:30.303Z,101007.92
2022-09-03T09:45:04.599Z,100993.60
2022-09-03T09:47:38.934Z,100990.70
2022-09-03T09:50:25.190Z,101006.60
2022-09-03T09:53:11.414Z,101009.50
2022-09-03T09:55:55.665Z,101001.92
2022-09-03T09:58:28.131Z,100999.45
2022-09-03T10:01:05.250Z,100999.75
2022-09-03T10:03:35.328Z,101002.09
2022-09-03T10:06:27.384Z,100994.00
2022-09-03T10:09:11.719Z,101001.84
2022-09-03T10:11:45.186Z,101002.20
2022-09-03T10:14:22.250Z,100993.07
2022-09-03T10:16:57.654Z,100996.70
2022-09-03T10:19:56.975Z,101002.45
2022-09-03T10:22:27.730Z,101000.45
2022-09-03T10:25:00.898Z,101000.05
2022-09-03T10:27:32.115Z,100998.19
2022-09-03T10:30:01.735Z,100997.77
2022-09-03T10:33:02.095Z,100998.38
2022-09-03T10:35:39.971Z,100999.22
2022-09-03T10:38:37.192Z,100990.77
2022-09-03T10:41:29.844Z,100986.36
2022-09-03T10:44:35.311Z,100982.08
2022-09-03T10:47:17.342Z,100984.80
2022-09-03T10:50:16.185Z,100985.64
2022-09-03T10:53:13.264Z,100987.00
2022-09-03T10:56:04.175Z,100980.98
2022-09-03T10:59:20.601Z,100971.61
2022-09-03T11:02:07.621Z,100982.98
2022-09-03T11:04:58.997Z,100971.67
2022-09-03T11:07:39.418Z,100965.38
2022-09-03T11:10:40.071Z,100969.13
2022-09-03T11:13:20.405Z,100969.64
2022-09-03T11:16:03.942Z,100972.34
2022-09-03T11:18:54.027Z,100967.44
2022-09-03T11:21:25.795Z,100967.24
2022-09-03T11:24:23.826Z,100966.80
2022-09-03T11:27:03.501Z,100960.64
2022-09-03T11:29:40.293Z,100952.00
2022-09-03T11:32:11.837Z,100950.69
2022-09-03T11:34:54.256Z,100951.78
2022-09-03T11:37:26.148Z,100951.53
2022-09-03T11:40:01.413Z,100954.86
2022-09-03T11:42:41.625Z,100952.92
2022-09-03T11:45:30.939Z,100953.77
2022-09-03T11:48:00.905Z,100950.99
2022-09-03T11:50:32.378Z,100938.48
2022-09-03T11:53:10.945Z,100937.68
2022-09-03T11:55:53.068Z,100930.12
2022-09-03T11:58:35.692Z,100933.70
2022-09-03T12:01:15.007Z,100934.98
2022-09-03T12:03:53.763Z,100928.47
2022-09-03T12:07:04.439Z,100929.75
2022-09-03T12:09:54.044Z,100926.19
2022-09-03T12:13:02.935Z,100921.77
2022-09-03T12:16:00.319Z,100915.41
2022-09-03T12:18:34.393Z,100914.71
2022-09-03T12:21:06.227Z,100915.34
2022-09-03T12:23:49.909Z,100912.56
2022-09-03T12:26:23.633Z,100908.14
2022-09-03T12:28:58.534Z,100903.78
2022-09-03T12:31:32.772Z,100915.61
2022-09-03T12:34:08.503Z,100916.86
2022-09-03T12:36:51.325Z,100922.22
2022-09-03T12:42:08.931Z,100919.99
2022-09-03T12:44:41.156Z,100918.19
2022-09-03T12:49:46.948Z,100915.33
2022-09-03T12:52:28.737Z,100918.21
2022-09-03T12:55:12.783Z,100917.72
2022-09-03T12:57:49.406Z,100904.66
2022-09-03T13:00:18.932Z,100908.58
2022-09-03T13:02:59.163Z,100898.30
2022-09-03T13:05:39.383Z,100900.48
2022-09-03T13:08:12.786Z,100901.02
2022-09-03T13:10:43.302Z,100893.77
2022-09-03T13:13:23.990Z,100889.80
2022-09-03T13:16:22.488Z,100896.95
2022-09-03T13:19:34.954Z,100895.75
2022-09-03T13:22:15.662Z,100899.43
2022-09-03T13:25:02.393Z,100892.48
2022-09-03T13:28:11.362Z,100894.11
2022-09-03T13:31:04.432Z,100894.91
2022-09-03T13:33:40.848Z,100888.00
2022-09-03T13:36:17.195Z,100875.94
2022-09-03T13:39:06.303Z,100884.28
2022-09-03T13:41:58.976Z,100883.68
2022-09-03T13:44:51.530Z,100890.38
2022-09-03T13:47:45.610Z,100883.78
2022-09-03T13:50:25.990Z,100879.45
2022-09-03T13:53:17.895Z,100881.34
2022-09-03T13:55:58.001Z,100885.27
2022-09-03T13:58:40.755Z,100888.59
2022-09-03T14:01:50.659Z,100885.52
2022-09-03T14:04:26.982Z,100884.86
2022-09-03T14:07:04.010Z,100882.88
2022-09-03T14:09:44.621Z,100879.73
2022-09-03T14:12:33.158Z,100874.23
2022-09-03T14:15:23.172Z,100877.72
2022-09-03T14:18:19.336Z,100866.94
2022-09-03T14:20:56.334Z,100862.47
2022-09-03T14:23:48.842Z,100861.63
2022-09-03T14:26:38.720Z,100862.12
2022-09-03T14:29:12.642Z,100856.02
2022-09-03T14:32:23.617Z,100854.63
2022-09-03T14:35:24.168Z,100848.27
2022-09-03T14:38:36.809Z,100852.55
2022-09-03T14:41:39.147Z,100850.66
2022-09-03T14:44:28.955Z,100835.27
2022-09-03T14:47:32.298Z,100838.63
2022-09-03T14:50:43.341Z,100852.08
2022-09-03T14:54:01.035Z,100856.02
2022-09-03T14:56:52.028Z,100848.66
2022-09-03T14:59:41.279Z,100847.91
2022-09-03T15:02:42.110Z,100846.64
2022-09-03T15:05:45.955Z,100842.66
2022-09-03T15:08:41.470Z,100839.83
2022-09-03T15:11:22.555Z,100840.86
2022-09-03T15:14:15.060Z,100842.20
2022-09-03T15:17:31.271Z,100838.76
2022-09-03T15:20:25.658Z,100835.38
2022-09-03T15:23:28.116Z,100841.78
2022-09-03T15:26:38.233Z,100846.19
2022-09-03T15:29:40.679Z,100837.31
2022-09-03T15:32:47.226Z,100839.25
2022-09-03T15:35:48.086Z,100840.63
2022-09-03T15:38:34.578Z,100834.97
2022-09-03T15:41:12.148Z,100842.39
2022-09-03T15:43:42.305Z,100843.78
2022-09-03T15:46:19.490Z,100840.77
2022-09-03T15:49:13.234Z,100843.48
2022-09-03T15:51:54.762Z,100841.73
2022-09-03T15:54:42.743Z,100842.21
2022-09-03T15:57:26.542Z,100843.06
2022-09-03T16:00:04.705Z,100843.66
2022-09-03T16:02:50.221Z,100833.58
2022-09-03T16:05:24.516Z,100832.92
2022-09-03T16:08:09.153Z,100833.97
2022-09-03T16:10:43.710Z,100833.97
2022-09-03T16:13:34.304Z,100831.69
2022-09-03T16:16:12.186Z,100828.00
2022-09-03T16:19:06.689Z,100823.71
2022-09-03T16:22:00.295Z,100837.53
2022-09-03T16:24:52.811Z,100840.25
2022-09-03T16:27:44.896Z,100839.19
2022-09-03T16:30:30.834Z,100837.13
2022-09-03T16:33:30.239Z,100835.68
2022-09-03T16:36:07.968Z,100838.62
2022-09-03T16:39:06.229Z,100837.66
2022-09-03T16:42:07.316Z,100833.13
2022-09-03T16:45:27.824Z,100833.84
2022-09-03T16:48:21.833Z,100842.03
2022-09-03T16:51:41.415Z,100835.27
2022-09-03T16:54:38.617Z,100835.69
2022-09-03T16:57:24.332Z,100847.86
2022-09-03T17:00:05.634Z,100845.02
2022-09-03T17:03:07.322Z,100853.10
2022-09-03T17:05:49.052Z,100854.96
2022-09-03T17:09:01.028Z,100854.83
2022-09-03T17:11:57.512Z,100860.77
2022-09-03T17:15:09.942Z,100860.56
2022-09-03T17:18:05.510Z,100859.73
2022-09-03T17:21:07.861Z,100858.13
2022-09-03T17:23:42.985Z,100855.58
2022-09-03T17:26:34.645Z,100864.78
2022-09-03T17:29:27.818Z,100868.63
2022-09-03T17:32:30.990Z,100869.17
2022-09-03T17:35:15.164Z,100871.02
2022-09-03T17:38:11.307Z,100866.25
2022-09-03T17:41:03.860Z,100869.18
2022-09-03T17:43:58.709Z,100872.19
2022-09-03T17:46:42.192Z,100874.41
2022-09-03T17:49:27.943Z,100862.56
2022-09-03T17:52:27.820Z,100859.55
2022-09-03T17:55:00.433Z,100865.48
2022-09-03T17:57:40.407Z,100861.48
2022-09-03T18:00:12.162Z,100860.41
2022-09-03T18:02:52.388Z,100857.94
2022-09-03T18:05:33.096Z,100860.78
2022-09-03T18:08:26.584Z,100859.40
2022-09-03T18:11:11.060Z,100860.41
2022-09-03T18:14:14.079Z,100857.87
2022-09-03T18:17:02.943Z,100864.80
2022-09-03T18:20:12.841Z,100874.41
2022-09-03T18:23:15.409Z,100862.80
2022-09-03T18:26:05.969Z,100863.56
2022-09-03T18:29:05.205Z,100873.11
2022-09-03T18:31:53.242Z,100880.33
2022-09-03T18:34:48.956Z,100868.33
2022-09-03T18:37:40.565Z,100874.86
2022-09-03T18:40:31.806Z,100873.63
2022-09-03T18:43:37.042Z,100874.55
2022-09-03T18:49:45.678Z,100874.30
2022-09-03T18:52:42.131Z,100869.42
2022-09-03T18:55:41.534Z,100865.33
2022-09-03T18:58:43.733Z,100870.16
2022-09-03T19:01:51.681Z,100866.53
2022-09-03T19:05:09.236Z,100868.02
2022-09-03T19:08:22.059Z,100871.02
2022-09-03T19:11:24.537Z,100876.91
2022-09-03T19:14:13.682Z,100879.08
2022-09-03T19:17:22.836Z,100881.41
2022-09-03T19:20:43.059Z,100889.18
2022-09-03T19:23:31.101Z,100884.94
2022-09-03T19:26:41.812Z,100894.53
2022-09-03T19:29:51.585Z,100895.38
2022-09-03T19:32:43.675Z,100897.38
2022-09-03T19:35:38.449Z,100902.47
2022-09-03T19:38:43.531Z,100906.61
2022-09-03T19:41:36.881Z,100903.67
2022-09-03T19:44:59.495Z,100904.78
2022-09-03T19:48:11.246Z,100898.00
2022-09-03T19:51:03.241Z,100897.28
2022-09-03T19:53:51.164Z,100901.87
2022-09-03T19:56:44.467Z,100898.61
2022-09-03T19:59:36.464Z,100904.39
2022-09-03T20:02:24.472Z,100902.00
2022-09-03T20:05:20.986Z,100902.66
2022-09-03T20:08:10.933Z,100906.26
2022-09-03T20:10:42.199Z,100904.46
2022-09-03T20:13:14.586Z,100906.72
2022-09-03T20:16:07.660Z,100915.65
2022-09-03T20:19:04.585Z,100918.64
2022-09-03T20:21:48.710Z,100912.30
2022-09-03T20:24:54.166Z,100920.69
2022-09-03T20:27:56.272Z,100924.84
2022-09-03T20:30:30.199Z,100924.22
2022-09-03T20:33:30.842Z,100932.83
2022-09-03T20:36:08.371Z,100935.48
2022-09-03T20:38:59.209Z,100940.55
2022-09-03T20:41:45.683Z,100937.89
2022-09-03T20:44:29.128Z,100939.38
2022-09-03T20:47:22.413Z,100945.95
2022-09-03T20:50:38.370Z,100950.73
2022-09-03T20:53:25.669Z,100947.23
2022-09-03T20:56:11.007Z,100950.09
2022-09-03T20:59:28.946Z,100940.76
2022-09-03T21:02:33.813Z,100941.08
2022-09-03T21:05:24.067Z,100937.78
2022-09-03T21:08:22.957Z,100939.27
2022-09-03T21:11:10.039Z,100940.97
2022-09-03T21:14:14.883Z,100943.84
2022-09-03T21:17:07.447Z,100944.05
2022-09-03T21:20:00.604Z,100947.87
2022-09-03T21:22:47.970Z,100942.98
2022-09-03T21:25:34.715Z,100937.68
2022-09-03T21:28:24.519Z,100940.87
2022-09-03T21:31:02.169Z,100938.42
2022-09-03T21:33:35.464Z,100939.38
2022-09-03T21:36:33.620Z,100943.94
2022-09-03T21:39:23.476Z,100942.03
2022-09-03T21:42:21.130Z,100936.20
2022-09-03T21:45:07.564Z,100946.91
2022-09-03T21:47:43.109Z,100947.55
2022-09-03T21:50:22.050Z,100943.30
2022-09-03T21:53:03.521Z,100939.70
2022-09-03T21:55:56.490Z,100940.23
2022-09-03T21:59:08.142Z,100939.59
2022-09-03T22:02:01.078Z,100943.20
2022-09-03T22:04:31.173Z,100947.77
2022-09-03T22:07:31.277Z,100941.29
2022-09-03T22:10:20.959Z,100937.79
2022-09-03T22:13:06.588Z,100942.35
2022-09-03T22:15:38.014Z,100937.47
2022-09-03T22:18:28.707Z,100942.98
2022-09-03T22:21:07.114Z,100942.03
2022-09-03T22:24:01.480Z,100940.33
2022-09-03T22:27:17.631Z,100937.79
2022-09-03T22:30:12.387Z,100941.61
2022-09-03T22:33:08.930Z,100944.47
2022-09-03T22:35:52.712Z,100941.61
2022-09-03T22:38:47.220Z,100945.00
2022-09-03T22:41:45.581Z,100941.50
2022-09-03T22:44:44.261Z,100943.73
2022-09-03T22:47:50.588Z,100941.19
2022-09-03T22:50:42.752Z,100945.43
2022-09-03T22:54:01.501Z,100943.41
2022-09-03T22:56:34.985Z,100950.95
2022-09-03T22:59:19.555Z,100948.72
2022-09-03T23:02:10.486Z,100948.08
2022-09-03T23:05:02.944Z,100948.93
2022-09-03T23:07:55.458Z,100947.87
2022-09-03T23:10:59.323Z,100947.45
2022-09-03T23:13:48.097Z,100945.75
2022-09-03T23:16:43.719Z,100948.19
2022-09-03T23:21:57.709Z,100939.48
2022-09-03T23:24:37.871Z,100942.25
2022-09-03T23:27:10.834Z,100938.31
2022-09-03T23:29:59.284Z,100945.43
2022-09-03T23:32:33.221Z,100948.40
2022-09-03T23:35:03.093Z,100940.02
2022-09-03T23:38:01.021Z,100947.34
2022-09-03T23:40:51.163Z,100942.67
2022-09-03T23:44:01.969Z,100949.56
2022-09-03T23:46:52.322Z,100953.06
2022-09-03T23:49:32.960Z,100949.35
2022-09-03T23:52:32.077Z,100950.72
2022-09-03T23:55:27.686Z,100941.28
2022-09-03T23:58:11.058Z,100947.95
